createdAt,value
2023-04-10T09:28:23.654Z,29.50
2023-04-10T09:33:30.560Z,29.70
2023-04-10T09:38:36.155Z,30.80
2023-04-10T09:43:45.894Z,30.00
2023-04-10T09:48:59.561Z,30.70
2023-04-10T09:54:04.810Z,31.30
2023-04-10T09:59:12.592Z,32.10
2023-04-10T10:04:18.499Z,32.70
2023-04-10T10:09:23.908Z,34.30
2023-04-10T10:14:32.063Z,35.00
2023-04-10T10:19:41.950Z,35.30
2023-04-10T10:24:49.348Z,36.10
2023-04-10T10:29:57.949Z,36.30
2023-04-10T10:35:03.543Z,36.60
2023-04-10T10:40:15.064Z,37.10
2023-04-10T10:45:26.846Z,37.40
2023-04-10T10:50:57.254Z,37.60
2023-04-10T10:56:02.904Z,37.40
2023-04-10T11:01:11.258Z,37.70
2023-04-10T11:06:20.229Z,37.70
2023-04-10T11:11:27.572Z,37.60
2023-04-10T11:16:50.917Z,37.40
2023-04-10T11:22:10.798Z,37.10
2023-04-10T11:27:44.992Z,37.40
2023-04-10T11:32:52.977Z,37.50
2023-04-10T11:38:17.693Z,38.20
2023-04-10T11:43:22.942Z,37.20
2023-04-10T11:48:31.501Z,37.10
2023-04-10T11:53:36.708Z,36.70
2023-04-10T11:58:41.926Z,36.40
2023-04-10T12:03:49.929Z,36.30
2023-04-10T12:08:55.881Z,36.70
2023-04-10T12:14:01.300Z,35.80
2023-04-10T12:19:09.105Z,35.80
2023-04-10T12:24:14.661Z,35.70
2023-04-10T12:29:19.884Z,34.50
2023-04-10T12:34:27.863Z,33.00
2023-04-10T12:39:33.169Z,32.80
2023-04-10T12:44:38.694Z,32.20
2023-04-10T12:49:50.187Z,31.30
2023-04-10T12:54:55.736Z,31.40
2023-04-10T13:00:03.265Z,31.80
2023-04-10T13:05:12.490Z,31.20
2023-04-10T13:10:17.700Z,31.00
2023-04-10T13:15:23.019Z,29.70
2023-04-10T13:20:31.315Z,29.20
2023-04-10T13:25:40.027Z,28.40
2023-04-10T13:30:45.667Z,28.40
2023-04-10T13:35:53.611Z,28.40
2023-04-10T13:40:58.964Z,28.40
2023-04-10T13:46:04.178Z,28.40
2023-04-10T13:51:12.115Z,28.30
2023-04-10T13:56:17.408Z,28.20
2023-04-10T14:01:22.905Z,28.20
2023-04-10T14:06:31.452Z,28.40
2023-04-10T14:11:36.737Z,28.30
2023-04-10T14:16:42.119Z,28.30
2023-04-10T14:21:50.173Z,28.10
2023-04-10T14:26:58.539Z,28.40
2023-04-10T17:04:20.720Z,49.60
2023-04-10T17:09:25.993Z,47.60
2023-04-10T17:14:31.425Z,48.60
2023-04-10T17:19:39.541Z,49.00
2023-04-10T17:24:45.556Z,48.90
2023-04-10T17:29:50.982Z,49.00
2023-04-10T17:34:59.293Z,48.90
2023-04-10T17:40:05.125Z,48.80
2023-04-10T17:45:11.948Z,48.60
2023-04-10T17:50:20.317Z,48.30
2023-04-10T17:55:25.681Z,48.30
2023-04-10T18:00:31.303Z,48.50
2023-04-10T18:05:39.972Z,48.70
2023-04-10T18:10:45.346Z,48.90
2023-04-10T18:15:50.880Z,49.10
2023-04-10T21:21:49.226Z,91.00
2023-04-10T21:26:54.466Z,77.40
2023-04-10T21:31:59.954Z,80.20
2023-04-10T21:37:07.818Z,83.60
2023-04-10T21:42:13.120Z,85.60
2023-04-10T21:47:18.386Z,86.20
2023-04-10T21:52:26.232Z,87.60
2023-04-10T21:57:31.739Z,88.90
2023-04-10T22:02:37.339Z,90.10
2023-04-10T22:07:45.224Z,90.70
2023-04-10T22:12:50.610Z,90.90
2023-04-10T22:17:56.216Z,91.30
2023-04-10T22:23:05.123Z,91.50
2023-04-10T22:28:10.622Z,91.70
